createdAt,value
2022-11-29T00:01:42.726Z,86.75
2022-11-29T00:04:11.799Z,86.35
2022-11-29T00:06:40.237Z,86.67
2022-11-29T00:09:11.599Z,86.30
2022-11-29T00:11:58.559Z,86.09
2022-11-29T00:14:29.515Z,86.06
2022-11-29T00:17:02.237Z,86.76
2022-11-29T00:19:31.898Z,86.49
2022-11-29T00:22:00.992Z,86.47
2022-11-29T00:24:31.618Z,86.11
2022-11-29T00:27:00.856Z,86.51
2022-11-29T00:29:31.658Z,86.40
2022-11-29T00:32:00.350Z,86.68
2022-11-29T00:34:29.861Z,86.27
2022-11-29T00:36:58.472Z,86.31
2022-11-29T00:39:26.989Z,86.39
2022-11-29T00:41:55.628Z,86.67
2022-11-29T00:44:24.052Z,86.33
2022-11-29T00:46:53.822Z,86.13
2022-11-29T00:49:22.229Z,86.51
2022-11-29T00:51:50.673Z,86.65
2022-11-29T00:54:19.474Z,86.47
2022-11-29T00:56:47.901Z,86.38
2022-11-29T00:59:16.247Z,86.37
2022-11-29T01:01:44.643Z,86.78
2022-11-29T01:08:06.430Z,86.07
2022-11-29T01:10:34.687Z,86.17
2022-11-29T01:13:03.094Z,86.43
2022-11-29T01:15:31.824Z,86.40
2022-11-29T01:18:00.209Z,86.21
2022-11-29T01:20:30.306Z,86.69
2022-11-29T01:22:59.270Z,86.70
2022-11-29T01:25:27.653Z,86.76
2022-11-29T01:27:55.979Z,86.49
2022-11-29T01:30:24.421Z,86.32
2022-11-29T01:32:52.824Z,86.76
2022-11-29T01:35:21.314Z,86.56
2022-11-29T01:37:51.021Z,86.69
2022-11-29T01:40:19.505Z,86.68
2022-11-29T01:42:47.871Z,86.94
2022-11-29T01:45:24.226Z,87.10
2022-11-29T01:47:56.196Z,86.88
2022-11-29T01:50:24.877Z,87.10
2022-11-29T01:52:56.849Z,86.35
2022-11-29T01:55:25.248Z,86.50
2022-11-29T01:57:54.025Z,86.85
2022-11-29T02:00:22.762Z,86.74
2022-11-29T02:02:56.663Z,86.73
2022-11-29T02:05:26.488Z,87.33
2022-11-29T02:07:58.870Z,87.11
2022-11-29T02:10:38.788Z,86.92
2022-11-29T02:13:16.324Z,86.54
2022-11-29T02:15:50.743Z,86.58
2022-11-29T02:18:30.154Z,86.86
2022-11-29T02:21:17.418Z,87.06
2022-11-29T02:24:12.282Z,86.68
2022-11-29T02:27:17.966Z,86.76
2022-11-29T02:30:07.595Z,86.65
2022-11-29T02:33:06.440Z,86.61
2022-11-29T02:35:48.589Z,87.21
2022-11-29T02:38:31.773Z,86.44
2022-11-29T02:41:16.670Z,86.79
2022-11-29T02:44:05.413Z,86.96
2022-11-29T02:46:53.336Z,86.51
2022-11-29T02:49:37.588Z,86.82
2022-11-29T02:52:13.165Z,87.16
2022-11-29T02:54:49.182Z,87.27
2022-11-29T02:57:24.251Z,87.17
2022-11-29T03:00:00.830Z,86.86
2022-11-29T03:02:36.780Z,87.06
2022-11-29T03:05:15.091Z,87.26
2022-11-29T03:07:55.722Z,86.97
2022-11-29T03:10:35.928Z,86.92
2022-11-29T03:13:09.869Z,87.43
2022-11-29T03:15:45.629Z,87.04
2022-11-29T03:18:29.521Z,86.98
2022-11-29T03:21:14.513Z,87.54
2022-11-29T03:23:48.247Z,87.63
2022-11-29T03:26:20.237Z,87.31
2022-11-29T03:28:54.553Z,87.74
2022-11-29T03:31:30.315Z,87.35
2022-11-29T03:34:07.207Z,87.05
2022-11-29T03:36:46.320Z,87.09
2022-11-29T03:39:19.781Z,87.12
2022-11-29T03:41:53.414Z,87.68
2022-11-29T03:44:26.464Z,87.32
2022-11-29T03:47:00.580Z,87.55
2022-11-29T03:49:35.261Z,87.55
2022-11-29T03:52:16.720Z,87.41
2022-11-29T03:54:55.385Z,87.34
2022-11-29T03:57:32.705Z,87.18
2022-11-29T04:00:06.546Z,87.40
2022-11-29T04:03:10.912Z,87.73
2022-11-29T04:05:58.621Z,87.66
2022-11-29T04:09:14.727Z,87.29
2022-11-29T04:12:27.557Z,87.84
2022-11-29T04:15:33.841Z,87.77
2022-11-29T04:18:21.878Z,87.44
2022-11-29T04:21:20.098Z,87.69
2022-11-29T04:24:16.365Z,87.29
2022-11-29T04:27:26.562Z,87.64
2022-11-29T04:30:06.717Z,87.19
2022-11-29T04:33:08.144Z,87.25
2022-11-29T04:36:02.784Z,87.34
2022-11-29T04:38:57.289Z,87.83
2022-11-29T04:41:41.949Z,87.37
2022-11-29T04:44:28.485Z,87.70
2022-11-29T04:47:20.745Z,87.20
2022-11-29T04:50:12.450Z,88.09
2022-11-29T04:52:59.938Z,87.88
2022-11-29T04:55:42.096Z,87.57
2022-11-29T04:58:20.357Z,87.99
2022-11-29T05:00:57.435Z,87.75
2022-11-29T05:03:36.672Z,87.34
2022-11-29T05:06:18.344Z,87.26
2022-11-29T05:08:56.902Z,87.80
2022-11-29T05:11:37.860Z,87.56
2022-11-29T05:14:17.923Z,87.45
2022-11-29T05:16:49.850Z,87.49
2022-11-29T05:19:29.927Z,87.30
2022-11-29T05:22:14.372Z,88.01
2022-11-29T05:24:55.377Z,87.78
2022-11-29T05:27:37.333Z,88.08
2022-11-29T05:30:08.537Z,88.45
2022-11-29T05:32:43.309Z,88.08
2022-11-29T05:35:47.797Z,87.69
2022-11-29T05:38:35.078Z,88.19
2022-11-29T05:41:19.700Z,87.99
2022-11-29T05:44:00.294Z,88.20
2022-11-29T05:46:36.340Z,87.90
2022-11-29T05:49:17.026Z,88.23
2022-11-29T05:51:53.848Z,87.96
2022-11-29T05:54:30.913Z,88.15
2022-11-29T05:57:12.570Z,88.40
2022-11-29T05:59:43.037Z,88.12
2022-11-29T06:02:29.478Z,88.12
2022-11-29T06:05:07.388Z,88.32
2022-11-29T06:07:44.613Z,88.19
2022-11-29T06:10:18.737Z,88.58
2022-11-29T06:13:01.195Z,88.42
2022-11-29T06:15:50.139Z,88.37
2022-11-29T06:18:42.657Z,88.60
2022-11-29T06:21:26.087Z,88.27
2022-11-29T06:24:25.742Z,88.23
2022-11-29T06:27:17.256Z,88.01
2022-11-29T06:29:52.910Z,88.24
2022-11-29T06:32:30.643Z,88.42
2022-11-29T06:35:04.094Z,88.76
2022-11-29T06:37:39.130Z,88.19
2022-11-29T06:40:12.321Z,88.84
2022-11-29T06:42:42.036Z,88.71
2022-11-29T06:45:13.742Z,88.91
2022-11-29T06:47:45.428Z,88.93
2022-11-29T06:50:32.246Z,88.89
2022-11-29T06:53:05.853Z,88.93
2022-11-29T06:55:42.206Z,88.43
2022-11-29T06:58:23.681Z,88.58
2022-11-29T07:00:59.234Z,88.50
2022-11-29T07:03:46.342Z,88.36
2022-11-29T07:06:21.834Z,88.69
2022-11-29T07:08:54.912Z,88.95
2022-11-29T07:11:25.345Z,88.86
2022-11-29T07:13:55.922Z,88.93
2022-11-29T07:16:29.406Z,88.75
2022-11-29T07:19:09.689Z,88.47
2022-11-29T07:21:49.384Z,88.75
2022-11-29T07:24:35.724Z,88.98
2022-11-29T07:27:12.731Z,88.68
2022-11-29T07:29:51.476Z,88.81
2022-11-29T07:32:26.762Z,89.11
2022-11-29T07:35:03.030Z,89.14
2022-11-29T07:37:37.958Z,88.82
2022-11-29T07:40:14.910Z,89.17
2022-11-29T07:42:55.614Z,88.95
2022-11-29T07:45:29.529Z,89.30
2022-11-29T07:47:57.832Z,88.67
2022-11-29T07:50:26.998Z,89.06
2022-11-29T07:52:56.516Z,89.11
2022-11-29T07:55:26.949Z,89.36
2022-11-29T07:57:55.358Z,88.73
2022-11-29T08:00:24.553Z,88.95
2022-11-29T08:02:54.343Z,89.02
2022-11-29T08:05:23.937Z,88.97
2022-11-29T08:07:53.572Z,88.65
2022-11-29T08:10:21.901Z,88.81
2022-11-29T08:12:51.917Z,89.22
2022-11-29T08:15:22.285Z,89.01
2022-11-29T08:17:51.012Z,88.80
2022-11-29T08:20:20.993Z,89.50
2022-11-29T08:22:55.706Z,89.46
2022-11-29T08:25:24.402Z,88.75
2022-11-29T08:27:54.502Z,89.15
2022-11-29T08:30:23.747Z,88.92
2022-11-29T08:32:52.921Z,88.96
2022-11-29T08:35:24.362Z,88.82
2022-11-29T08:37:52.906Z,89.43
2022-11-29T08:40:22.193Z,89.57
2022-11-29T08:42:51.220Z,89.19
2022-11-29T08:45:19.910Z,88.84
2022-11-29T08:47:50.251Z,89.56
2022-11-29T08:50:19.537Z,88.86
2022-11-29T08:53:08.279Z,89.41
2022-11-29T08:55:39.947Z,88.94
2022-11-29T08:58:09.810Z,88.86
2022-11-29T09:00:39.465Z,89.36
2022-11-29T09:03:26.135Z,89.10
2022-11-29T09:05:54.542Z,88.88
2022-11-29T09:08:24.307Z,89.57
2022-11-29T09:10:53.276Z,89.20
2022-11-29T09:13:22.908Z,89.01
2022-11-29T09:15:51.265Z,89.26
2022-11-29T09:18:19.648Z,89.17
2022-11-29T09:20:48.054Z,89.63
2022-11-29T09:23:16.403Z,89.43
2022-11-29T09:25:51.823Z,89.57
2022-11-29T09:28:20.246Z,89.52
2022-11-29T09:30:49.613Z,89.67
2022-11-29T09:33:18.197Z,89.27
2022-11-29T09:35:46.818Z,89.12
2022-11-29T09:38:15.822Z,89.12
2022-11-29T09:40:53.260Z,89.51
2022-11-29T09:43:30.817Z,89.78
2022-11-29T09:46:16.040Z,89.22
2022-11-29T09:49:09.569Z,89.71
2022-11-29T09:51:45.990Z,89.47
2022-11-29T09:54:25.545Z,89.67
2022-11-29T09:56:56.786Z,89.40
2022-11-29T09:59:29.788Z,89.47
2022-11-29T10:02:04.490Z,89.97
2022-11-29T10:04:40.383Z,89.90
2022-11-29T10:07:19.549Z,89.44
2022-11-29T10:09:52.387Z,89.78
2022-11-29T10:12:27.592Z,89.75
2022-11-29T10:15:01.312Z,89.63
2022-11-29T10:17:36.113Z,89.44
2022-11-29T10:20:11.558Z,89.85
2022-11-29T10:22:47.893Z,89.83
2022-11-29T10:25:25.141Z,89.79
2022-11-29T10:27:55.319Z,89.58
2022-11-29T10:30:26.687Z,89.78
2022-11-29T10:32:58.946Z,89.70
2022-11-29T10:35:29.588Z,90.06
2022-11-29T10:40:55.415Z,89.80
2022-11-29T10:43:25.440Z,89.84
2022-11-29T10:45:57.059Z,89.71
2022-11-29T10:48:31.662Z,90.04
2022-11-29T10:51:00.876Z,90.12
2022-11-29T10:53:32.526Z,90.09
2022-11-29T10:56:06.156Z,89.88
2022-11-29T10:58:35.287Z,89.83
2022-11-29T11:01:07.761Z,89.97
2022-11-29T11:03:39.335Z,90.01
2022-11-29T11:06:11.952Z,90.00
2022-11-29T11:08:43.541Z,89.96
2022-11-29T11:11:13.631Z,89.79
2022-11-29T11:13:42.361Z,89.88
2022-11-29T11:16:26.597Z,90.01
2022-11-29T11:18:55.046Z,89.67
2022-11-29T11:21:26.528Z,89.82
2022-11-29T11:23:57.868Z,89.79
2022-11-29T11:26:27.438Z,89.77
2022-11-29T11:29:00.029Z,89.86
2022-11-29T11:31:38.067Z,90.06
2022-11-29T11:34:34.206Z,90.10
2022-11-29T11:37:22.368Z,90.16
2022-11-29T11:39:52.795Z,90.08
2022-11-29T11:42:39.012Z,90.05
2022-11-29T11:45:30.056Z,89.72
2022-11-29T11:48:04.333Z,89.92
2022-11-29T11:50:34.963Z,89.88
2022-11-29T11:53:07.052Z,90.05
2022-11-29T11:55:40.701Z,89.85
2022-11-29T11:58:18.814Z,89.70
2022-11-29T12:01:06.749Z,89.58
2022-11-29T12:03:46.207Z,89.75
2022-11-29T12:06:38.015Z,89.69
2022-11-29T12:09:14.195Z,89.53
2022-11-29T12:11:47.710Z,89.32
2022-11-29T12:14:24.547Z,89.63
2022-11-29T12:17:03.205Z,89.33
2022-11-29T12:19:40.637Z,89.45
2022-11-29T12:22:16.463Z,89.48
2022-11-29T12:24:54.521Z,89.42
2022-11-29T12:27:22.996Z,89.49
2022-11-29T12:29:51.657Z,89.34
2022-11-29T12:32:40.861Z,89.48
2022-11-29T12:35:50.665Z,89.41
2022-11-29T12:38:35.540Z,89.58
2022-11-29T12:41:13.051Z,89.47
2022-11-29T12:43:53.377Z,89.45
2022-11-29T12:46:26.023Z,89.45
2022-11-29T12:49:02.497Z,89.52
2022-11-29T12:51:43.318Z,89.39
2022-11-29T12:54:47.356Z,89.33
2022-11-29T12:57:22.657Z,89.33
2022-11-29T13:00:08.123Z,89.48
2022-11-29T13:02:50.549Z,89.59
2022-11-29T13:05:30.269Z,89.32
2022-11-29T13:08:13.055Z,89.49
2022-11-29T13:10:56.861Z,89.20
2022-11-29T13:13:37.335Z,89.62
2022-11-29T13:16:20.564Z,89.36
2022-11-29T13:19:01.896Z,89.61
2022-11-29T13:21:37.328Z,89.43
2022-11-29T13:24:11.779Z,89.55
2022-11-29T13:26:41.864Z,89.23
2022-11-29T13:29:15.832Z,89.56
2022-11-29T13:31:45.340Z,89.59
2022-11-29T13:34:17.331Z,89.61
2022-11-29T13:36:58.993Z,89.72
2022-11-29T13:39:40.341Z,89.76
2022-11-29T13:42:14.247Z,89.87
2022-11-29T13:44:51.665Z,89.96
2022-11-29T13:47:20.863Z,89.92
2022-11-29T13:49:55.022Z,89.73
2022-11-29T13:52:39.175Z,90.03
2022-11-29T13:55:23.461Z,89.77
2022-11-29T13:58:15.372Z,90.04
2022-11-29T14:00:51.736Z,89.85
2022-11-29T14:03:31.342Z,89.77
2022-11-29T14:06:15.206Z,90.25
2022-11-29T14:09:18.785Z,89.88
2022-11-29T14:11:53.558Z,89.79
2022-11-29T14:14:29.332Z,90.05
2022-11-29T14:17:01.658Z,90.13
2022-11-29T14:19:34.069Z,89.79
2022-11-29T14:22:31.181Z,90.00
2022-11-29T14:25:43.284Z,89.81
2022-11-29T14:28:30.983Z,89.88
2022-11-29T14:31:01.752Z,90.16
2022-11-29T14:33:40.117Z,90.15
2022-11-29T14:36:27.273Z,89.93
2022-11-29T14:39:06.542Z,90.16
2022-11-29T14:41:52.505Z,90.17
2022-11-29T14:44:26.289Z,90.40
2022-11-29T14:47:02.710Z,90.12
2022-11-29T14:49:32.803Z,90.45
2022-11-29T14:52:19.075Z,90.39
2022-11-29T14:54:55.667Z,90.52
2022-11-29T14:58:04.064Z,90.26
2022-11-29T15:00:41.926Z,90.26
2022-11-29T15:03:14.028Z,90.57
2022-11-29T15:05:45.088Z,90.53
2022-11-29T15:08:18.929Z,90.49
2022-11-29T15:10:51.655Z,90.45
2022-11-29T15:13:27.087Z,90.74
2022-11-29T15:16:23.571Z,90.58
2022-11-29T15:19:28.153Z,90.51
2022-11-29T15:22:09.776Z,90.83
2022-11-29T15:24:52.082Z,90.70
2022-11-29T15:27:20.765Z,90.64
2022-11-29T15:29:49.237Z,90.65
2022-11-29T15:32:25.748Z,90.60
2022-11-29T15:34:56.194Z,90.72
2022-11-29T15:37:39.281Z,90.63
2022-11-29T15:40:12.592Z,90.91
2022-11-29T15:42:42.981Z,90.87
2022-11-29T15:45:32.389Z,91.14
2022-11-29T15:48:30.509Z,91.18
2022-11-29T15:51:05.490Z,90.67
2022-11-29T15:53:38.803Z,90.95
2022-11-29T15:56:15.789Z,90.59
2022-11-29T15:58:46.895Z,90.74
2022-11-29T16:01:21.184Z,91.07
2022-11-29T16:03:55.400Z,90.78
2022-11-29T16:06:29.725Z,91.03
2022-11-29T16:08:58.368Z,90.68
2022-11-29T16:11:30.018Z,91.08
2022-11-29T16:14:14.777Z,91.17
2022-11-29T16:16:45.086Z,90.79
2022-11-29T16:19:23.729Z,90.88
2022-11-29T16:22:08.637Z,91.13
2022-11-29T16:24:38.561Z,91.17
2022-11-29T16:27:08.934Z,90.71
2022-11-29T16:29:39.274Z,91.13
2022-11-29T16:32:16.769Z,91.11
2022-11-29T16:34:46.775Z,90.81
2022-11-29T16:37:20.145Z,90.93
2022-11-29T16:39:51.204Z,91.05
2022-11-29T16:42:25.748Z,91.08
2022-11-29T16:45:29.082Z,91.25
2022-11-29T16:47:59.711Z,91.01
2022-11-29T16:50:30.852Z,90.99
2022-11-29T16:53:36.737Z,91.25
2022-11-29T16:56:07.261Z,91.20
2022-11-29T16:58:40.244Z,91.01
2022-11-29T17:01:26.396Z,90.85
2022-11-29T17:03:55.367Z,91.14
2022-11-29T17:06:26.805Z,90.69
2022-11-29T17:08:58.140Z,90.78
2022-11-29T17:11:26.649Z,90.93
2022-11-29T17:13:55.683Z,91.10
2022-11-29T17:16:25.629Z,90.64
2022-11-29T17:18:54.154Z,91.18
2022-11-29T17:21:24.390Z,91.16
2022-11-29T17:23:54.865Z,90.79
2022-11-29T17:26:24.541Z,91.17
2022-11-29T17:28:53.286Z,90.95
2022-11-29T17:31:24.073Z,91.10
2022-11-29T17:33:52.600Z,91.06
2022-11-29T17:36:21.971Z,91.09
2022-11-29T17:38:50.488Z,90.91
2022-11-29T17:41:22.867Z,90.96
2022-11-29T17:43:52.029Z,91.20
2022-11-29T17:46:21.806Z,91.08
2022-11-29T17:48:50.601Z,90.85
2022-11-29T17:51:50.200Z,90.66
2022-11-29T17:54:10.449Z,90.61
2022-11-29T17:56:40.157Z,91.08
2022-11-29T17:59:08.631Z,90.81
2022-11-29T18:01:37.322Z,90.80
2022-11-29T18:04:08.325Z,91.18
2022-11-29T18:06:38.246Z,90.95
2022-11-29T18:09:08.559Z,91.16
2022-11-29T18:11:47.017Z,91.44
2022-11-29T18:14:19.626Z,90.96
2022-11-29T18:16:48.290Z,90.99
2022-11-29T18:19:19.277Z,90.96
2022-11-29T18:21:48.904Z,91.24
2022-11-29T18:24:17.297Z,91.16
2022-11-29T18:26:46.446Z,91.27
2022-11-29T18:29:14.941Z,90.90
2022-11-29T18:31:46.382Z,90.93
2022-11-29T18:34:15.951Z,90.60
2022-11-29T18:36:45.843Z,91.18
2022-11-29T18:39:16.366Z,90.74
2022-11-29T18:41:46.985Z,90.84
2022-11-29T18:44:16.773Z,91.07
2022-11-29T18:46:47.226Z,91.25
2022-11-29T18:49:17.199Z,90.96
2022-11-29T18:51:46.559Z,91.31
2022-11-29T18:54:15.980Z,90.95
2022-11-29T18:56:45.710Z,90.67
2022-11-29T18:59:17.816Z,90.98
2022-11-29T19:01:48.814Z,90.85
2022-11-29T19:04:19.259Z,91.07
2022-11-29T19:06:48.668Z,91.00
2022-11-29T19:09:19.203Z,91.17
2022-11-29T19:11:48.791Z,90.83
2022-11-29T19:14:19.983Z,91.15
2022-11-29T19:16:50.786Z,90.93
2022-11-29T19:19:19.873Z,91.33
2022-11-29T19:21:49.070Z,90.92
2022-11-29T19:24:18.788Z,90.92
2022-11-29T19:26:48.522Z,91.29
2022-11-29T19:29:17.814Z,91.38
2022-11-29T19:31:46.374Z,90.70
2022-11-29T19:34:16.098Z,91.05
2022-11-29T19:36:45.456Z,91.05
2022-11-29T19:39:15.481Z,91.30
2022-11-29T19:41:45.479Z,90.94
2022-11-29T19:44:14.318Z,91.17
2022-11-29T19:46:45.694Z,91.45
2022-11-29T19:49:14.556Z,90.94
2022-11-29T19:51:44.671Z,91.04
2022-11-29T19:54:13.165Z,91.09
2022-11-29T19:56:41.667Z,90.87
2022-11-29T19:59:10.330Z,90.90
2022-11-29T20:01:42.378Z,91.39
2022-11-29T20:04:12.974Z,91.17
2022-11-29T20:06:42.008Z,90.73
2022-11-29T20:09:13.658Z,90.72
2022-11-29T20:11:42.022Z,90.89
2022-11-29T20:14:14.475Z,91.06
2022-11-29T20:16:43.653Z,90.81
2022-11-29T20:19:13.692Z,91.00
2022-11-29T20:21:44.621Z,91.22
2022-11-29T20:24:15.569Z,90.73
2022-11-29T20:26:46.573Z,90.48
2022-11-29T20:29:16.641Z,90.97
2022-11-29T20:31:50.700Z,90.97
2022-11-29T20:34:20.917Z,90.58
2022-11-29T20:37:10.733Z,90.78
2022-11-29T20:39:49.109Z,90.61
2022-11-29T20:42:50.161Z,90.30
2022-11-29T20:45:18.989Z,90.50
2022-11-29T20:47:52.109Z,90.49
2022-11-29T20:50:23.871Z,90.96
2022-11-29T20:53:12.075Z,90.92
2022-11-29T20:55:47.749Z,90.51
2022-11-29T20:58:18.210Z,90.60
2022-11-29T21:00:46.883Z,90.44
2022-11-29T21:03:15.463Z,90.52
2022-11-29T21:05:44.395Z,90.72
2022-11-29T21:08:12.861Z,90.84
2022-11-29T21:10:42.722Z,90.76
2022-11-29T21:13:13.170Z,90.31
2022-11-29T21:15:42.155Z,90.40
2022-11-29T21:18:21.255Z,90.06
2022-11-29T21:20:58.817Z,90.62
2022-11-29T21:23:37.678Z,90.18
2022-11-29T21:26:14.461Z,90.83
2022-11-29T21:28:50.823Z,90.23
2022-11-29T21:31:20.045Z,90.65
2022-11-29T21:33:49.114Z,90.83
2022-11-29T21:36:19.033Z,90.15
2022-11-29T21:38:53.895Z,90.34
2022-11-29T21:41:24.710Z,90.31
2022-11-29T21:44:08.875Z,90.25
2022-11-29T21:46:37.565Z,90.65
2022-11-29T21:49:06.202Z,90.43
2022-11-29T21:51:34.521Z,90.26
2022-11-29T21:54:03.155Z,90.29
2022-11-29T21:56:32.879Z,90.57
2022-11-29T21:59:01.285Z,90.70
2022-11-29T22:01:29.796Z,90.55
2022-11-29T22:03:58.232Z,90.32
2022-11-29T22:06:29.252Z,90.16
2022-11-29T22:09:00.072Z,89.92
2022-11-29T22:11:38.698Z,90.39
2022-11-29T22:14:16.009Z,90.26
2022-11-29T22:16:46.463Z,90.46
2022-11-29T22:19:17.181Z,89.83
2022-11-29T22:21:47.408Z,89.75
2022-11-29T22:24:18.085Z,89.78
2022-11-29T22:26:46.784Z,90.09
2022-11-29T22:29:17.310Z,89.86
2022-11-29T22:31:47.807Z,89.60
2022-11-29T22:34:16.797Z,90.12
2022-11-29T22:36:45.154Z,89.87
2022-11-29T22:39:13.459Z,90.20
2022-11-29T22:41:42.194Z,90.19
2022-11-29T22:44:10.609Z,90.09
2022-11-29T22:46:41.427Z,89.36
2022-11-29T22:49:10.572Z,89.62
2022-11-29T22:51:39.465Z,89.77
2022-11-29T22:54:10.414Z,89.87
2022-11-29T22:56:40.536Z,89.92
2022-11-29T22:59:10.133Z,90.02
2022-11-29T23:01:41.404Z,89.38
2022-11-29T23:07:05.717Z,89.24
2022-11-29T23:09:34.091Z,89.26
2022-11-29T23:12:02.478Z,90.09
2022-11-29T23:14:30.933Z,89.30
2022-11-29T23:17:00.660Z,89.20
2022-11-29T23:19:29.715Z,89.13
2022-11-29T23:21:58.037Z,89.42
2022-11-29T23:24:26.743Z,89.54
2022-11-29T23:26:55.268Z,89.92
2022-11-29T23:29:23.919Z,89.90
2022-11-29T23:31:52.498Z,89.90
2022-11-29T23:34:22.326Z,89.46
2022-11-29T23:36:53.167Z,89.40
2022-11-29T23:39:22.479Z,89.70
2022-11-29T23:41:50.841Z,89.39
2022-11-29T23:44:19.244Z,89.17
2022-11-29T23:46:47.765Z,90.15
2022-11-29T23:49:16.397Z,89.68
2022-11-29T23:51:46.123Z,89.50
2022-11-29T23:54:14.465Z,89.82
2022-11-29T23:56:42.824Z,89.89
2022-11-29T23:59:11.475Z,89.79
